createdAt,value
2023-04-12T00:00:25.172Z,98552.72
2023-04-12T00:03:11.523Z,98506.31
2023-04-12T00:05:59.863Z,98533.81
2023-04-12T00:08:46.885Z,98539.81
2023-04-12T00:11:33.426Z,98548.38
2023-04-12T00:14:19.983Z,98519.22
2023-04-12T00:17:06.230Z,98530.34
2023-04-12T00:19:52.379Z,98530.34
2023-04-12T00:22:39.804Z,98524.31
2023-04-12T00:25:26.346Z,98480.50
2023-04-12T00:28:12.781Z,98510.59
2023-04-12T00:30:58.995Z,98525.16
2023-04-12T00:33:47.232Z,98500.28
2023-04-12T00:36:33.673Z,98528.63
2023-04-12T00:39:20.033Z,98527.78
2023-04-12T00:42:06.799Z,98502.00
2023-04-12T00:44:52.965Z,98471.94
2023-04-12T00:47:42.860Z,98477.97
2023-04-12T00:50:29.653Z,98489.97
2023-04-12T00:53:17.617Z,98495.16
2023-04-12T00:56:04.512Z,98491.72
2023-04-12T00:58:50.972Z,98502.00
2023-04-12T01:01:38.379Z,98487.41
2023-04-12T01:04:26.412Z,98502.03
2023-04-12T01:07:29.965Z,98482.25
2023-04-12T01:10:39.131Z,98476.25
2023-04-12T01:13:59.143Z,98491.72
2023-04-12T01:16:51.820Z,98448.75
2023-04-12T01:19:47.433Z,98495.13
2023-04-12T01:23:06.043Z,98482.25
2023-04-12T01:26:15.625Z,98478.81
2023-04-12T01:29:07.728Z,98477.97
2023-04-12T01:32:01.779Z,98447.91
2023-04-12T01:34:49.348Z,98429.03
2023-04-12T01:37:36.455Z,98417.88
2023-04-12T01:40:24.040Z,98429.91
2023-04-12T01:43:13.502Z,98414.44
2023-04-12T01:45:59.947Z,98429.88
2023-04-12T01:48:51.071Z,98405.84
2023-04-12T01:51:48.298Z,98401.53
2023-04-12T01:54:38.616Z,98400.72
2023-04-12T01:57:26.859Z,98404.97
2023-04-12T02:00:15.589Z,98409.28
2023-04-12T02:03:03.153Z,98373.25
2023-04-12T02:05:51.733Z,98371.50
2023-04-12T02:08:40.163Z,98398.13
2023-04-12T02:11:29.383Z,98387.81
2023-04-12T02:14:16.301Z,98387.81
2023-04-12T02:17:04.569Z,98381.81
2023-04-12T02:19:51.593Z,98375.81
2023-04-12T02:22:38.783Z,98374.97
2023-04-12T02:25:24.971Z,98319.19
2023-04-12T02:28:11.476Z,98350.94
2023-04-12T02:30:57.820Z,98334.63
2023-04-12T02:33:44.282Z,98367.22
2023-04-12T02:36:30.623Z,98301.16
2023-04-12T02:39:18.703Z,98302.03
2023-04-12T02:42:07.328Z,98302.88
2023-04-12T02:44:53.991Z,98319.19
2023-04-12T02:47:41.610Z,98316.63
2023-04-12T02:50:30.230Z,98326.91
2023-04-12T02:53:29.073Z,98302.88
2023-04-12T02:56:31.084Z,98296.91
2023-04-12T02:59:26.296Z,98296.88
2023-04-12T03:02:27.876Z,98286.59
2023-04-12T03:05:19.698Z,98284.88
2023-04-12T03:08:06.455Z,98289.16
2023-04-12T03:10:58.844Z,98249.72
2023-04-12T03:13:46.640Z,98248.00
2023-04-12T03:16:35.518Z,98258.31
2023-04-12T03:19:30.334Z,98260.00
2023-04-12T03:22:16.542Z,98269.47
2023-04-12T03:25:06.462Z,98246.28
2023-04-12T03:27:52.748Z,98227.44
2023-04-12T03:30:42.006Z,98249.75
2023-04-12T03:33:28.632Z,98236.00
2023-04-12T03:36:23.783Z,98242.84
2023-04-12T03:39:16.741Z,98227.41
2023-04-12T03:42:04.809Z,98229.13
2023-04-12T03:44:52.378Z,98210.28
2023-04-12T03:47:41.785Z,98221.41
2023-04-12T03:50:29.595Z,98215.41
2023-04-12T03:53:17.473Z,98210.25
2023-04-12T03:56:06.623Z,98176.00
2023-04-12T03:58:53.501Z,98148.59
2023-04-12T04:01:41.677Z,98134.84
2023-04-12T04:04:28.684Z,98116.88
2023-04-12T04:07:19.144Z,98160.53
2023-04-12T04:10:06.889Z,98139.16
2023-04-12T04:12:57.283Z,98163.97
2023-04-12T04:15:43.838Z,98175.06
2023-04-12T04:18:31.121Z,98121.16
2023-04-12T04:21:19.549Z,98161.41
2023-04-12T04:24:07.032Z,98148.56
2023-04-12T04:26:59.265Z,98145.97
2023-04-12T04:29:46.937Z,98123.69
2023-04-12T04:32:36.091Z,98142.53
2023-04-12T04:35:24.133Z,98116.00
2023-04-12T04:38:25.676Z,98141.69
2023-04-12T04:41:17.535Z,98122.84
2023-04-12T04:44:10.858Z,98133.94
2023-04-12T04:47:05.047Z,98108.25
2023-04-12T04:49:51.779Z,98098.84
2023-04-12T04:52:44.664Z,98095.44
2023-04-12T04:55:33.477Z,98094.56
2023-04-12T04:58:20.677Z,98127.97
2023-04-12T05:01:07.433Z,98115.97
2023-04-12T05:03:55.666Z,98115.97
2023-04-12T05:06:46.317Z,98113.38
2023-04-12T05:09:35.022Z,98122.84
2023-04-12T05:12:21.694Z,98081.72
2023-04-12T05:15:12.457Z,98102.22
2023-04-12T05:18:00.012Z,98028.63
2023-04-12T05:20:48.380Z,98055.97
2023-04-12T05:23:45.620Z,98091.06
2023-04-12T05:26:34.269Z,98031.97
2023-04-12T05:29:22.827Z,98044.81
2023-04-12T05:32:09.268Z,98047.34
2023-04-12T05:34:57.431Z,98060.19
2023-04-12T05:37:43.806Z,98066.13
2023-04-12T05:40:31.764Z,98018.25
2023-04-12T05:43:18.876Z,98042.16
2023-04-12T05:46:08.028Z,98029.28
2023-04-12T05:48:56.433Z,98042.13
2023-04-12T05:51:43.085Z,98033.53
2023-04-12T05:54:38.418Z,98014.75
2023-04-12T05:57:25.478Z,98030.81
2023-04-12T06:00:18.617Z,98019.66
2023-04-12T06:03:06.145Z,97942.66
2023-04-12T06:05:52.960Z,97992.31
2023-04-12T06:08:39.460Z,97969.09
2023-04-12T06:11:27.392Z,97974.16
2023-04-12T06:14:14.810Z,97978.44
2023-04-12T06:17:01.637Z,97971.63
2023-04-12T06:19:47.871Z,97994.69
2023-04-12T06:22:34.328Z,97978.22
2023-04-12T06:25:21.320Z,97981.53
2023-04-12T06:28:10.633Z,97915.72
2023-04-12T06:31:04.181Z,97968.59
2023-04-12T06:33:55.330Z,97962.56
2023-04-12T06:36:43.428Z,97962.47
2023-04-12T06:39:29.740Z,97933.28
2023-04-12T06:42:17.590Z,97955.56
2023-04-12T06:45:05.042Z,97916.28
2023-04-12T06:47:51.626Z,97939.31
2023-04-12T06:50:39.896Z,97937.50
2023-04-12T06:53:26.493Z,97870.00
2023-04-12T06:56:12.873Z,97907.38
2023-04-12T06:58:59.779Z,97885.88
2023-04-12T07:01:46.324Z,97924.16
2023-04-12T07:04:32.604Z,97896.75
2023-04-12T07:07:20.645Z,97908.53
2023-04-12T07:10:07.523Z,97881.78
2023-04-12T07:12:53.600Z,97879.22
2023-04-12T07:15:39.984Z,97874.09
2023-04-12T07:18:26.702Z,97883.28
2023-04-12T07:21:14.513Z,97851.81
2023-04-12T07:24:01.571Z,97844.63
2023-04-12T07:26:47.867Z,97872.63
2023-04-12T07:29:34.396Z,97868.16
2023-04-12T07:32:21.209Z,97812.50
2023-04-12T07:35:08.190Z,97824.63
2023-04-12T07:37:54.919Z,97801.88
2023-04-12T07:40:41.169Z,97762.78
2023-04-12T07:43:27.632Z,97821.28
2023-04-12T07:46:14.019Z,97815.22
2023-04-12T07:49:00.548Z,97794.41
2023-04-12T07:51:46.765Z,97781.41
2023-04-12T07:54:33.263Z,97776.38
2023-04-12T07:57:19.700Z,97766.00
2023-04-12T08:00:07.027Z,97767.38
2023-04-12T08:03:00.265Z,97717.53
2023-04-12T08:05:49.530Z,97742.97
2023-04-12T08:08:35.995Z,97763.13
2023-04-12T08:11:22.134Z,97748.22
2023-04-12T08:14:08.603Z,97755.13
2023-04-12T08:16:54.985Z,97739.88
2023-04-12T08:19:41.755Z,97699.81
2023-04-12T08:22:28.831Z,97767.03
2023-04-12T08:25:15.730Z,97750.56
2023-04-12T08:28:02.149Z,97762.22
2023-04-12T08:30:48.456Z,97777.38
2023-04-12T08:33:34.695Z,97751.94
2023-04-12T08:36:21.458Z,97781.66
2023-04-12T08:39:08.062Z,97771.84
2023-04-12T08:41:56.945Z,97785.22
2023-04-12T08:44:44.128Z,97730.72
2023-04-12T08:47:32.570Z,97764.31
2023-04-12T08:50:21.164Z,97772.84
2023-04-12T08:53:10.527Z,97754.91
2023-04-12T08:55:56.804Z,97764.34
2023-04-12T08:58:50.856Z,97750.59
2023-04-12T09:01:41.335Z,97733.06
2023-04-12T09:04:27.657Z,97719.06
2023-04-12T09:07:14.388Z,97735.31
2023-04-12T09:10:01.911Z,97737.66
2023-04-12T09:12:49.737Z,97741.69
2023-04-12T09:15:48.650Z,97724.94
2023-04-12T09:18:48.249Z,97722.03
2023-04-12T09:21:35.806Z,97712.38
2023-04-12T09:24:24.923Z,97719.06
2023-04-12T09:27:11.654Z,97718.75
2023-04-12T09:30:09.060Z,97709.97
2023-04-12T09:32:55.773Z,97687.03
2023-04-12T09:35:43.001Z,97708.81
2023-04-12T09:38:30.794Z,97686.41
2023-04-12T09:41:21.533Z,97698.50
2023-04-12T09:44:30.103Z,97668.16
2023-04-12T09:47:17.003Z,97674.25
2023-04-12T09:50:04.716Z,97683.81
2023-04-12T09:52:52.634Z,97675.28
2023-04-12T09:55:39.578Z,97684.53
2023-04-12T09:58:29.399Z,97669.44
2023-04-12T10:01:17.917Z,97632.47
2023-04-12T10:04:07.151Z,97675.91
2023-04-12T10:06:53.702Z,97640.66
2023-04-12T10:09:41.467Z,97645.59
2023-04-12T10:12:28.352Z,97633.94
2023-04-12T10:15:21.144Z,97656.41
2023-04-12T10:18:16.003Z,97674.41
2023-04-12T10:21:03.434Z,97642.59
2023-04-12T10:23:50.870Z,97629.53
2023-04-12T10:26:42.538Z,97660.31
2023-04-12T10:29:31.892Z,97660.50
2023-04-12T10:32:23.416Z,97625.81
2023-04-12T10:35:11.604Z,97651.78
2023-04-12T10:38:02.058Z,97599.31
2023-04-12T10:41:09.731Z,97642.63
2023-04-12T10:44:26.250Z,97658.31
2023-04-12T10:47:12.918Z,97642.19
2023-04-12T10:50:24.794Z,97641.47
2023-04-12T10:53:17.603Z,97642.63
2023-04-12T10:56:32.076Z,97637.69
2023-04-12T10:59:19.167Z,97616.25
2023-04-12T11:02:10.472Z,97631.03
2023-04-12T11:05:10.037Z,97627.22
2023-04-12T11:08:19.522Z,97607.00
2023-04-12T11:11:34.635Z,97623.00
2023-04-12T11:14:28.656Z,97620.59
2023-04-12T11:17:16.024Z,97613.16
2023-04-12T11:20:03.598Z,97593.84
2023-04-12T11:22:51.555Z,97619.38
2023-04-12T11:25:37.972Z,97567.94
2023-04-12T11:28:29.844Z,97579.84
2023-04-12T11:31:20.297Z,97577.03
2023-04-12T11:34:06.701Z,97589.75
2023-04-12T11:36:54.099Z,97597.34
2023-04-12T11:39:45.834Z,97567.16
2023-04-12T11:42:32.856Z,97559.69
2023-04-12T11:45:20.293Z,97567.69
2023-04-12T11:48:09.381Z,97575.31
2023-04-12T11:51:10.351Z,97577.56
2023-04-12T11:53:59.269Z,97569.41
2023-04-12T11:56:46.602Z,97550.44
2023-04-12T11:59:34.322Z,97552.06
2023-04-12T12:02:23.544Z,97512.31
2023-04-12T12:05:11.742Z,97543.53
2023-04-12T12:08:00.797Z,97527.00
2023-04-12T12:11:06.281Z,97562.25
2023-04-12T12:13:56.343Z,97532.03
2023-04-12T12:16:43.133Z,97551.38
2023-04-12T12:19:36.438Z,97501.38
2023-04-12T12:22:23.015Z,97550.16
2023-04-12T12:25:11.546Z,97531.41
2023-04-12T12:27:59.202Z,97518.66
2023-04-12T12:30:46.571Z,97553.44
2023-04-12T12:33:46.314Z,97538.63
2023-04-12T12:36:36.741Z,97538.38
2023-04-12T12:39:23.408Z,97522.31
2023-04-12T12:42:11.982Z,97517.75
2023-04-12T12:44:58.141Z,97511.72
2023-04-12T12:47:50.975Z,97527.66
2023-04-12T12:50:37.441Z,97515.75
2023-04-12T12:53:24.617Z,97482.75
2023-04-12T12:56:15.931Z,97494.38
2023-04-12T12:59:02.791Z,97498.31
2023-04-12T13:01:49.384Z,97499.78
2023-04-12T13:04:35.761Z,97510.91
2023-04-12T13:07:22.354Z,97498.19
2023-04-12T13:10:08.970Z,97516.22
2023-04-12T13:12:55.395Z,97507.75
2023-04-12T13:15:41.935Z,97500.00
2023-04-12T13:18:28.308Z,97467.16
2023-04-12T13:21:14.636Z,97493.31
2023-04-12T13:24:00.886Z,97491.13
2023-04-12T13:26:47.361Z,97466.06
2023-04-12T13:29:34.131Z,97482.13
2023-04-12T13:32:20.582Z,97492.09
2023-04-12T13:35:07.137Z,97477.03
2023-04-12T13:37:53.549Z,97490.88
2023-04-12T13:40:40.047Z,97475.75
2023-04-12T13:43:27.324Z,97485.28
2023-04-12T13:46:13.641Z,97473.59
2023-04-12T13:49:00.561Z,97440.03
2023-04-12T13:51:47.072Z,97452.69
2023-04-12T13:54:33.541Z,97426.19
2023-04-12T13:57:19.804Z,97457.69
2023-04-12T14:00:07.146Z,97460.13
2023-04-12T14:02:54.096Z,97453.44
2023-04-12T14:05:40.325Z,97440.34
2023-04-12T14:08:27.598Z,97465.50
2023-04-12T14:11:14.435Z,97418.66
2023-04-12T14:14:00.651Z,97399.44
2023-04-12T14:16:47.157Z,97442.81
2023-04-12T14:19:33.654Z,97456.00
2023-04-12T14:22:20.381Z,97449.75
2023-04-12T14:25:07.988Z,97423.75
2023-04-12T14:27:54.247Z,97439.81
2023-04-12T14:30:42.062Z,97433.59
2023-04-12T14:33:29.514Z,97437.66
2023-04-12T14:36:15.888Z,97421.25
2023-04-12T14:39:04.080Z,97435.94
2023-04-12T14:41:50.737Z,97429.97
2023-04-12T14:44:37.353Z,97431.06
2023-04-12T14:47:23.692Z,97412.09
2023-04-12T14:50:10.154Z,97431.81
2023-04-12T14:52:56.349Z,97441.38
2023-04-12T14:55:46.434Z,97488.56
2023-04-12T14:58:34.355Z,97567.50
2023-04-12T15:01:21.731Z,97518.22
2023-04-12T15:04:08.946Z,97581.16
2023-04-12T15:06:55.620Z,97546.28
2023-04-12T15:09:44.003Z,97572.28
2023-04-12T15:12:33.473Z,97585.72
2023-04-12T15:15:20.462Z,97587.59
2023-04-12T15:18:06.699Z,97575.78
2023-04-12T15:20:53.299Z,97530.88
2023-04-12T15:23:41.362Z,97589.69
2023-04-12T15:26:27.780Z,97564.16
2023-04-12T15:29:18.097Z,97555.28
2023-04-12T15:32:04.907Z,97557.19
2023-04-12T15:34:51.508Z,97572.38
2023-04-12T15:37:39.963Z,97600.81
2023-04-12T15:40:26.368Z,97581.78
2023-04-12T15:43:12.965Z,97558.72
2023-04-12T15:45:59.651Z,97578.78
2023-04-12T15:48:46.121Z,97565.94
2023-04-12T15:51:33.296Z,97603.25
2023-04-12T15:54:19.570Z,97544.88
2023-04-12T15:57:11.366Z,97565.66
2023-04-12T15:59:59.394Z,97573.13
2023-04-12T16:02:50.135Z,97580.88
2023-04-12T16:05:37.025Z,97538.69
2023-04-12T16:08:23.965Z,97562.28
2023-04-12T16:11:12.141Z,97546.25
2023-04-12T16:13:59.022Z,97595.72
2023-04-12T16:16:46.693Z,97556.69
2023-04-12T16:19:33.400Z,97565.47
2023-04-12T16:22:20.290Z,97565.84
2023-04-12T16:25:08.333Z,97603.09
2023-04-12T16:27:55.470Z,97582.78
2023-04-12T16:30:42.065Z,97524.06
2023-04-12T16:33:28.753Z,97590.53
2023-04-12T16:36:16.220Z,97602.66
2023-04-12T16:39:03.432Z,97570.34
2023-04-12T16:41:49.722Z,97585.34
2023-04-12T16:44:36.427Z,97593.19
2023-04-12T16:47:22.751Z,97593.13
2023-04-12T16:50:10.063Z,97587.84
2023-04-12T16:52:56.276Z,97565.91
2023-04-12T16:55:44.043Z,97606.47
2023-04-12T16:58:31.260Z,97579.00
2023-04-12T17:01:17.843Z,97575.00
2023-04-12T17:04:04.541Z,97580.34
2023-04-12T17:06:51.107Z,97566.38
2023-04-12T17:09:37.611Z,97597.38
2023-04-12T17:12:23.924Z,97598.06
2023-04-12T17:15:11.708Z,97617.91
2023-04-12T17:18:06.602Z,97600.69
2023-04-12T17:20:52.904Z,97620.72
2023-04-12T17:23:39.589Z,97626.44
2023-04-12T17:26:27.213Z,97574.72
2023-04-12T17:29:14.491Z,97602.09
2023-04-12T17:32:00.699Z,97593.13
2023-04-12T17:34:46.984Z,97610.13
2023-04-12T17:37:38.215Z,97635.44
2023-04-12T17:40:24.945Z,97647.66
2023-04-12T17:43:11.565Z,97590.84
2023-04-12T17:46:03.330Z,97614.63
2023-04-12T17:48:50.036Z,97605.25
2023-04-12T17:51:36.382Z,97587.53
2023-04-12T17:54:23.011Z,97555.31
2023-04-12T17:57:09.774Z,97595.34
2023-04-12T17:59:56.557Z,97560.72
2023-04-12T18:02:46.736Z,97586.56
2023-04-12T18:05:33.812Z,97595.63
2023-04-12T18:08:23.816Z,97565.56
2023-04-12T18:11:10.955Z,97611.38
2023-04-12T18:13:57.798Z,97614.88
2023-04-12T18:16:44.334Z,97635.81
2023-04-12T18:19:31.049Z,97634.56
2023-04-12T18:22:17.646Z,97631.19
2023-04-12T18:25:04.634Z,97617.84
2023-04-12T18:27:52.421Z,97626.56
2023-04-12T18:30:38.770Z,97623.56
2023-04-12T18:33:25.362Z,97655.03
2023-04-12T18:36:11.858Z,97656.19
2023-04-12T18:38:58.317Z,97662.03
2023-04-12T18:41:44.507Z,97644.53
2023-04-12T18:44:31.661Z,97659.72
2023-04-12T18:47:18.379Z,97672.63
2023-04-12T18:50:06.496Z,97667.56
2023-04-12T18:52:53.124Z,97695.31
2023-04-12T18:55:39.549Z,97659.38
2023-04-12T18:58:29.782Z,97707.31
2023-04-12T19:01:20.009Z,97659.72
2023-04-12T19:04:07.767Z,97657.38
2023-04-12T19:06:55.541Z,97696.47
2023-04-12T19:09:42.139Z,97674.81
2023-04-12T19:12:29.137Z,97690.97
2023-04-12T19:15:15.525Z,97682.50
2023-04-12T19:18:02.013Z,97696.25
2023-04-12T19:20:49.950Z,97669.59
2023-04-12T19:23:37.060Z,97700.00
2023-04-12T19:26:23.553Z,97695.63
2023-04-12T19:29:09.799Z,97693.09
2023-04-12T19:31:57.836Z,97702.31
2023-04-12T19:34:44.568Z,97687.94
2023-04-12T19:37:33.990Z,97686.06
2023-04-12T19:40:21.071Z,97727.19
2023-04-12T19:43:08.371Z,97703.25
2023-04-12T19:45:55.022Z,97690.56
2023-04-12T19:48:41.734Z,97693.91
2023-04-12T19:51:28.165Z,97728.97
2023-04-12T19:54:14.749Z,97720.31
2023-04-12T19:57:00.954Z,97733.81
2023-04-12T19:59:47.280Z,97726.94
2023-04-12T20:02:34.005Z,97730.22
2023-04-12T20:05:22.455Z,97663.88
2023-04-12T20:08:10.688Z,97713.28
2023-04-12T20:10:57.438Z,97725.00
2023-04-12T20:13:43.706Z,97745.44
2023-04-12T20:16:31.379Z,97774.78
2023-04-12T20:19:17.740Z,97779.38
2023-04-12T20:22:04.032Z,97779.81
2023-04-12T20:24:53.030Z,97826.03
2023-04-12T20:27:39.325Z,97861.19
2023-04-12T20:30:26.260Z,97805.38
2023-04-12T20:33:13.009Z,97820.97
2023-04-12T20:35:59.539Z,97797.97
2023-04-12T20:38:46.124Z,97817.59
2023-04-12T20:41:35.079Z,97835.41
2023-04-12T20:44:21.536Z,97769.75
2023-04-12T20:47:07.982Z,97829.44
2023-04-12T20:49:56.092Z,97804.63
2023-04-12T20:52:42.769Z,97813.09
2023-04-12T20:55:33.911Z,97801.97
2023-04-12T20:58:21.397Z,97802.00
2023-04-12T21:01:08.291Z,97832.75
2023-04-12T21:03:55.938Z,97803.72
2023-04-12T21:06:43.850Z,97826.00
2023-04-12T21:09:30.568Z,97785.88
2023-04-12T21:12:18.141Z,97794.44
2023-04-12T21:15:06.130Z,97826.03
2023-04-12T21:17:52.562Z,97802.13
2023-04-12T21:20:39.496Z,97834.56
2023-04-12T21:23:26.580Z,97842.31
2023-04-12T21:26:14.382Z,97779.97
2023-04-12T21:29:01.403Z,97754.47
2023-04-12T21:31:48.745Z,97739.13
2023-04-12T21:34:39.096Z,97827.13
2023-04-12T21:37:26.113Z,97843.28
2023-04-12T21:40:13.228Z,97813.34
2023-04-12T21:42:59.331Z,97785.22
2023-04-12T21:45:46.590Z,97862.22
2023-04-12T21:48:32.753Z,97838.31
2023-04-12T21:51:19.100Z,97832.28
2023-04-12T21:54:05.461Z,97844.22
2023-04-12T21:56:51.540Z,97887.91
2023-04-12T21:59:38.130Z,97879.41
2023-04-12T22:02:25.766Z,97864.91
2023-04-12T22:05:12.417Z,97858.94
2023-04-12T22:07:59.550Z,97888.00
2023-04-12T22:10:46.544Z,97859.81
2023-04-12T22:13:33.268Z,97862.22
2023-04-12T22:16:19.675Z,97874.16
2023-04-12T22:19:06.125Z,97876.66
2023-04-12T22:21:54.152Z,97874.16
2023-04-12T22:24:40.482Z,97862.09
2023-04-12T22:27:26.886Z,97874.84
2023-04-12T22:30:14.354Z,97920.16
2023-04-12T22:33:00.703Z,97907.28
2023-04-12T22:35:47.245Z,97892.81
2023-04-12T22:38:35.284Z,97904.78
2023-04-12T22:41:21.477Z,97866.41
2023-04-12T22:44:07.971Z,97874.16
2023-04-12T22:46:56.642Z,97913.44
2023-04-12T22:49:50.383Z,97930.66
2023-04-12T22:52:40.481Z,97928.97
2023-04-12T22:55:27.979Z,97870.13
2023-04-12T22:58:15.475Z,97918.81
2023-04-12T23:01:04.051Z,97933.38
2023-04-12T23:03:51.727Z,97904.34
2023-04-12T23:06:42.349Z,97899.22
2023-04-12T23:09:28.724Z,97902.66
2023-04-12T23:12:15.065Z,97936.88
2023-04-12T23:15:02.173Z,97904.41
2023-04-12T23:17:49.921Z,97930.03
2023-04-12T23:20:37.500Z,97924.94
2023-04-12T23:23:24.645Z,97909.63
2023-04-12T23:26:11.948Z,97924.16
2023-04-12T23:28:58.366Z,97920.75
2023-04-12T23:31:45.732Z,97863.47
2023-04-12T23:34:34.698Z,97881.41
2023-04-12T23:37:22.321Z,97874.53
2023-04-12T23:40:14.861Z,97898.47
2023-04-12T23:43:02.203Z,97910.50
2023-04-12T23:45:49.065Z,97905.28
2023-04-12T23:48:35.820Z,97865.88
2023-04-12T23:51:22.591Z,97885.53
2023-04-12T23:54:08.973Z,97903.53
2023-04-12T23:56:55.070Z,97883.06
2023-04-12T23:59:41.597Z,97922.47
